In Rescue
 
Open Full Screen Window  High Contrast Mode
Wind Gusting 00 knots
03
October 24, 2019 5:33 AM EST
Weather Information
Wind Direction
  130 °
Wind Speed
  03 kt (3 mph)
Wind Gust
  00 kt (0 mph)
Altimeter
30.16 in
Visibility
10 SM
Temperature
05° C
41° F
Dewpoint
01° C
34° F
Humidity
76%
Sky Condition
Clear
VFR

METAR KCDA 241033Z AUTO 13003KT 10SM CLR 05/01 A3016 RMK AO2 T00480010

FAA Disclaimer: The data displayed is for advisory purposes only and is not to be used for flight planning or operations.